Terminal Aerodrome Forecast
Issued by NWS

Home | Current Version | Previous Version | Text Only | Print | Product List | Glossary Off
Versions: 1 2 3 4 5 6 7 8 9 10 11 12 13 14 15 16 17 18 19 20 21 22 23 24

000
FTUS45 KGGW 251721
TAFGDV
TAF
KGDV 251721Z 2518/2618 30014KT P6SM BKN090
     FM260000 VRB06KT P6SM OVC080
     FM261400 29007KT P6SM SCT140=

USA.gov is the U.S. government's official web portal to all federal, state and local government web resources and services.